KGTR/GTR METAR and TAF weather

Enter ICAO airport designator
Station Type Date Time Source
KGTR METAR 2019/05/26 22:56 UTC NOAA

KGTR 262256Z 22005KT 10SM CLR 33/21 A3008 RMK AO2 SLP190 T03330206


Station Type Date Time Source
KGTR Decoded METAR 2019/05/26 22:56 UTC NOAA

Columbus/West Point/Starkville, Golden Triangle Regional Airport, MS, United States (KGTR) 33-27N 088-35W
May 26, 2019 - 06:56 PM EDT / 2019.05.26 2256 UTC
Wind: from the SW (220 degrees) at 6 MPH (5 KT):0
Visibility: 10 mile(s):0
Sky conditions: clear
Temperature: 91.9 F (33.3 C)
Heat index: 96.8 F (36.0 C):1
Dew Point: 69.1 F (20.6 C)
Relative Humidity: 47%
Pressure (altimeter): 30.08 in. Hg (1018 hPa)
ob: KGTR 262256Z 22005KT 10SM CLR 33/21 A3008 RMK AO2 SLP190 T03330206
cycle: 23

Station Type Date Time Source
KGTR TAF 2019/05/26 18:22 UTC NOAA

TAF KGTR 261720Z 2618/2718 19006KT P6SM SKC

Example: see airport list